sensor_id;sensor_type;location;lat;lon;timestamp;P1;durP1;ratioP1;P2;durP2;ratioP2
22026;SDS011;11177;50.966;10.070;2023-07-31T00:01:44;3.90;;;1.67;;
22026;SDS011;11177;50.966;10.070;2023-07-31T00:04:11;4.38;;;1.60;;
22026;SDS011;11177;50.966;10.070;2023-07-31T00:06:38;4.45;;;1.50;;
22026;SDS011;11177;50.966;10.070;2023-07-31T00:09:05;2.92;;;1.55;;
22026;SDS011;11177;50.966;10.070;2023-07-31T00:11:32;5.50;;;1.70;;
22026;SDS011;11177;50.966;10.070;2023-07-31T00:13:59;3.95;;;1.42;;
22026;SDS011;11177;50.966;10.070;2023-07-31T00:16:26;4.57;;;1.80;;
22026;SDS011;11177;50.966;10.070;2023-07-31T00:18:53;6.22;;;1.70;;
22026;SDS011;11177;50.966;10.070;2023-07-31T00:21:20;2.53;;;1.60;;
22026;SDS011;11177;50.966;10.070;2023-07-31T00:23:47;6.50;;;1.50;;
22026;SDS011;11177;50.966;10.070;2023-07-31T00:26:14;3.38;;;1.77;;
22026;SDS011;11177;50.966;10.070;2023-07-31T00:28:41;3.08;;;1.52;;
22026;SDS011;11177;50.966;10.070;2023-07-31T00:31:07;2.78;;;1.50;;
22026;SDS011;11177;50.966;10.070;2023-07-31T00:33:34;3.65;;;1.60;;
22026;SDS011;11177;50.966;10.070;2023-07-31T00:36:03;6.13;;;1.60;;
22026;SDS011;11177;50.966;10.070;2023-07-31T00:38:30;4.95;;;1.80;;
22026;SDS011;11177;50.966;10.070;2023-07-31T00:40:56;4.55;;;1.73;;
22026;SDS011;11177;50.966;10.070;2023-07-31T00:43:24;5.43;;;1.52;;
22026;SDS011;11177;50.966;10.070;2023-07-31T00:45:51;8.93;;;1.88;;
22026;SDS011;11177;50.966;10.070;2023-07-31T00:48:18;3.63;;;1.90;;
22026;SDS011;11177;50.966;10.070;2023-07-31T00:50:45;5.10;;;1.83;;
22026;SDS011;11177;50.966;10.070;2023-07-31T00:53:12;6.10;;;2.40;;
22026;SDS011;11177;50.966;10.070;2023-07-31T00:55:40;4.28;;;1.83;;
22026;SDS011;11177;50.966;10.070;2023-07-31T00:58:07;5.32;;;2.03;;
22026;SDS011;11177;50.966;10.070;2023-07-31T01:00:33;8.15;;;1.83;;
22026;SDS011;11177;50.966;10.070;2023-07-31T01:03:00;3.05;;;1.85;;
22026;SDS011;11177;50.966;10.070;2023-07-31T01:05:31;5.35;;;1.70;;
22026;SDS011;11177;50.966;10.070;2023-07-31T01:08:26;5.60;;;1.90;;
22026;SDS011;11177;50.966;10.070;2023-07-31T01:11:09;4.05;;;1.75;;
22026;SDS011;11177;50.966;10.070;2023-07-31T01:14:00;4.65;;;1.73;;
22026;SDS011;11177;50.966;10.070;2023-07-31T01:16:28;2.80;;;1.60;;
22026;SDS011;11177;50.966;10.070;2023-07-31T01:18:55;6.13;;;1.80;;
22026;SDS011;11177;50.966;10.070;2023-07-31T01:21:42;4.80;;;1.98;;
22026;SDS011;11177;50.966;10.070;2023-07-31T01:27:51;3.67;;;1.80;;
22026;SDS011;11177;50.966;10.070;2023-07-31T01:30:23;4.88;;;1.70;;
22026;SDS011;11177;50.966;10.070;2023-07-31T01:32:52;5.07;;;1.95;;
22026;SDS011;11177;50.966;10.070;2023-07-31T01:35:19;4.25;;;1.58;;
22026;SDS011;11177;50.966;10.070;2023-07-31T01:37:46;7.28;;;2.08;;
22026;SDS011;11177;50.966;10.070;2023-07-31T01:40:13;6.00;;;1.70;;
22026;SDS011;11177;50.966;10.070;2023-07-31T01:42:40;5.25;;;1.90;;
22026;SDS011;11177;50.966;10.070;2023-07-31T01:45:07;4.85;;;1.70;;
22026;SDS011;11177;50.966;10.070;2023-07-31T01:47:35;3.60;;;1.80;;
22026;SDS011;11177;50.966;10.070;2023-07-31T01:50:02;4.03;;;1.70;;
22026;SDS011;11177;50.966;10.070;2023-07-31T01:52:29;6.75;;;2.10;;
22026;SDS011;11177;50.966;10.070;2023-07-31T01:54:56;3.80;;;1.85;;
22026;SDS011;11177;50.966;10.070;2023-07-31T01:57:23;4.95;;;1.73;;
22026;SDS011;11177;50.966;10.070;2023-07-31T01:59:50;8.43;;;1.85;;
22026;SDS011;11177;50.966;10.070;2023-07-31T02:02:19;4.35;;;1.88;;
22026;SDS011;11177;50.966;10.070;2023-07-31T02:04:47;4.32;;;1.70;;
22026;SDS011;11177;50.966;10.070;2023-07-31T02:07:14;7.38;;;2.13;;
22026;SDS011;11177;50.966;10.070;2023-07-31T02:09:41;7.88;;;2.17;;
22026;SDS011;11177;50.966;10.070;2023-07-31T02:12:08;4.82;;;2.13;;
22026;SDS011;11177;50.966;10.070;2023-07-31T02:14:35;3.05;;;1.85;;
22026;SDS011;11177;50.966;10.070;2023-07-31T02:17:02;7.60;;;1.92;;
22026;SDS011;11177;50.966;10.070;2023-07-31T02:19:29;5.75;;;2.33;;
22026;SDS011;11177;50.966;10.070;2023-07-31T02:21:55;4.30;;;2.35;;
22026;SDS011;11177;50.966;10.070;2023-07-31T02:24:23;8.82;;;2.80;;
22026;SDS011;11177;50.966;10.070;2023-07-31T02:26:50;7.60;;;2.20;;
22026;SDS011;11177;50.966;10.070;2023-07-31T02:29:17;5.28;;;2.03;;
22026;SDS011;11177;50.966;10.070;2023-07-31T02:31:44;6.65;;;2.30;;
22026;SDS011;11177;50.966;10.070;2023-07-31T02:34:11;8.82;;;2.15;;
22026;SDS011;11177;50.966;10.070;2023-07-31T02:36:38;7.93;;;2.20;;
22026;SDS011;11177;50.966;10.070;2023-07-31T02:39:05;4.10;;;2.10;;
22026;SDS011;11177;50.966;10.070;2023-07-31T02:41:31;4.55;;;2.10;;
22026;SDS011;11177;50.966;10.070;2023-07-31T02:43:58;5.13;;;2.08;;
22026;SDS011;11177;50.966;10.070;2023-07-31T02:46:25;4.70;;;2.30;;
22026;SDS011;11177;50.966;10.070;2023-07-31T02:48:52;4.22;;;1.95;;
22026;SDS011;11177;50.966;10.070;2023-07-31T02:51:19;6.15;;;2.30;;
22026;SDS011;11177;50.966;10.070;2023-07-31T02:53:47;6.07;;;2.20;;
22026;SDS011;11177;50.966;10.070;2023-07-31T02:56:15;6.40;;;2.20;;
22026;SDS011;11177;50.966;10.070;2023-07-31T02:58:42;6.78;;;2.50;;
22026;SDS011;11177;50.966;10.070;2023-07-31T03:01:08;6.55;;;2.35;;
22026;SDS011;11177;50.966;10.070;2023-07-31T03:03:35;4.47;;;2.28;;
22026;SDS011;11177;50.966;10.070;2023-07-31T03:06:02;5.55;;;2.42;;
22026;SDS011;11177;50.966;10.070;2023-07-31T03:08:29;7.47;;;2.30;;
22026;SDS011;11177;50.966;10.070;2023-07-31T03:10:56;5.43;;;2.63;;
22026;SDS011;11177;50.966;10.070;2023-07-31T03:13:23;5.10;;;2.13;;
22026;SDS011;11177;50.966;10.070;2023-07-31T03:15:50;4.90;;;2.28;;
22026;SDS011;11177;50.966;10.070;2023-07-31T03:18:17;4.45;;;2.03;;
22026;SDS011;11177;50.966;10.070;2023-07-31T03:20:44;6.28;;;2.78;;
22026;SDS011;11177;50.966;10.070;2023-07-31T03:23:11;5.43;;;2.20;;
22026;SDS011;11177;50.966;10.070;2023-07-31T03:25:37;5.38;;;2.38;;
22026;SDS011;11177;50.966;10.070;2023-07-31T03:28:04;5.47;;;2.10;;
22026;SDS011;11177;50.966;10.070;2023-07-31T03:30:31;4.80;;;2.30;;
22026;SDS011;11177;50.966;10.070;2023-07-31T03:32:58;7.22;;;2.20;;
22026;SDS011;11177;50.966;10.070;2023-07-31T03:35:25;5.22;;;2.30;;
22026;SDS011;11177;50.966;10.070;2023-07-31T03:37:52;4.35;;;2.40;;
22026;SDS011;11177;50.966;10.070;2023-07-31T03:40:19;5.22;;;2.08;;
22026;SDS011;11177;50.966;10.070;2023-07-31T03:42:46;6.70;;;2.28;;
22026;SDS011;11177;50.966;10.070;2023-07-31T03:45:12;6.25;;;2.28;;
22026;SDS011;11177;50.966;10.070;2023-07-31T03:47:39;6.18;;;2.17;;
22026;SDS011;11177;50.966;10.070;2023-07-31T03:50:06;7.32;;;2.70;;
22026;SDS011;11177;50.966;10.070;2023-07-31T03:52:33;5.20;;;2.38;;
22026;SDS011;11177;50.966;10.070;2023-07-31T03:55:00;5.72;;;2.25;;
22026;SDS011;11177;50.966;10.070;2023-07-31T03:57:27;6.53;;;2.38;;
22026;SDS011;11177;50.966;10.070;2023-07-31T03:59:54;6.30;;;2.17;;
22026;SDS011;11177;50.966;10.070;2023-07-31T04:02:21;5.00;;;2.30;;
22026;SDS011;11177;50.966;10.070;2023-07-31T04:04:48;5.30;;;2.20;;
22026;SDS011;11177;50.966;10.070;2023-07-31T04:07:15;7.38;;;2.30;;
22026;SDS011;11177;50.966;10.070;2023-07-31T04:09:42;6.57;;;2.30;;
22026;SDS011;11177;50.966;10.070;2023-07-31T04:12:10;3.25;;;1.85;;
22026;SDS011;11177;50.966;10.070;2023-07-31T04:14:37;3.65;;;2.20;;
22026;SDS011;11177;50.966;10.070;2023-07-31T04:17:03;4.03;;;2.10;;
22026;SDS011;11177;50.966;10.070;2023-07-31T04:19:31;10.40;;;3.20;;
22026;SDS011;11177;50.966;10.070;2023-07-31T04:21:58;5.20;;;2.30;;
22026;SDS011;11177;50.966;10.070;2023-07-31T04:24:25;4.80;;;2.15;;
22026;SDS011;11177;50.966;10.070;2023-07-31T04:26:52;5.55;;;2.13;;
22026;SDS011;11177;50.966;10.070;2023-07-31T04:29:19;5.25;;;2.20;;
22026;SDS011;11177;50.966;10.070;2023-07-31T04:31:47;5.57;;;2.15;;
22026;SDS011;11177;50.966;10.070;2023-07-31T04:34:15;5.88;;;2.20;;
22026;SDS011;11177;50.966;10.070;2023-07-31T04:36:41;6.43;;;2.40;;
22026;SDS011;11177;50.966;10.070;2023-07-31T04:39:08;3.38;;;2.20;;
22026;SDS011;11177;50.966;10.070;2023-07-31T04:41:35;6.80;;;2.65;;
22026;SDS011;11177;50.966;10.070;2023-07-31T04:44:02;6.63;;;2.13;;
22026;SDS011;11177;50.966;10.070;2023-07-31T04:46:32;5.97;;;2.35;;
22026;SDS011;11177;50.966;10.070;2023-07-31T04:49:00;3.90;;;2.40;;
22026;SDS011;11177;50.966;10.070;2023-07-31T04:51:26;9.02;;;3.08;;
22026;SDS011;11177;50.966;10.070;2023-07-31T04:53:53;6.38;;;2.67;;
22026;SDS011;11177;50.966;10.070;2023-07-31T04:56:20;7.38;;;2.60;;
22026;SDS011;11177;50.966;10.070;2023-07-31T04:58:47;6.97;;;2.92;;
22026;SDS011;11177;50.966;10.070;2023-07-31T05:01:13;5.28;;;2.30;;
22026;SDS011;11177;50.966;10.070;2023-07-31T05:03:41;5.72;;;2.75;;
22026;SDS011;11177;50.966;10.070;2023-07-31T05:06:08;6.85;;;2.40;;
22026;SDS011;11177;50.966;10.070;2023-07-31T05:08:35;7.82;;;2.40;;
22026;SDS011;11177;50.966;10.070;2023-07-31T05:11:02;4.07;;;2.38;;
22026;SDS011;11177;50.966;10.070;2023-07-31T05:13:29;9.90;;;2.78;;
22026;SDS011;11177;50.966;10.070;2023-07-31T05:15:56;6.18;;;2.47;;
22026;SDS011;11177;50.966;10.070;2023-07-31T05:18:26;3.45;;;2.30;;
22026;SDS011;11177;50.966;10.070;2023-07-31T05:20:53;7.22;;;2.90;;
22026;SDS011;11177;50.966;10.070;2023-07-31T05:23:20;8.05;;;2.85;;
22026;SDS011;11177;50.966;10.070;2023-07-31T05:25:47;6.43;;;2.83;;
22026;SDS011;11177;50.966;10.070;2023-07-31T05:28:14;8.30;;;2.65;;
22026;SDS011;11177;50.966;10.070;2023-07-31T05:30:41;5.57;;;2.50;;
22026;SDS011;11177;50.966;10.070;2023-07-31T05:33:08;6.15;;;3.40;;
22026;SDS011;11177;50.966;10.070;2023-07-31T05:35:37;5.55;;;2.60;;
22026;SDS011;11177;50.966;10.070;2023-07-31T05:38:05;4.75;;;2.53;;
22026;SDS011;11177;50.966;10.070;2023-07-31T05:40:33;5.07;;;2.55;;
22026;SDS011;11177;50.966;10.070;2023-07-31T05:43:00;6.40;;;2.42;;
22026;SDS011;11177;50.966;10.070;2023-07-31T05:45:27;7.07;;;2.80;;
22026;SDS011;11177;50.966;10.070;2023-07-31T05:47:54;6.78;;;3.08;;
22026;SDS011;11177;50.966;10.070;2023-07-31T05:50:21;9.40;;;2.90;;
22026;SDS011;11177;50.966;10.070;2023-07-31T05:52:47;8.68;;;3.08;;
22026;SDS011;11177;50.966;10.070;2023-07-31T05:55:14;6.28;;;2.90;;
22026;SDS011;11177;50.966;10.070;2023-07-31T05:57:43;8.60;;;2.88;;
22026;SDS011;11177;50.966;10.070;2023-07-31T06:00:12;6.18;;;2.70;;
22026;SDS011;11177;50.966;10.070;2023-07-31T06:02:39;6.30;;;2.90;;
22026;SDS011;11177;50.966;10.070;2023-07-31T06:05:07;6.25;;;2.72;;
22026;SDS011;11177;50.966;10.070;2023-07-31T06:07:34;8.35;;;3.53;;
22026;SDS011;11177;50.966;10.070;2023-07-31T06:10:01;8.40;;;3.80;;
22026;SDS011;11177;50.966;10.070;2023-07-31T06:12:29;5.20;;;3.15;;
22026;SDS011;11177;50.966;10.070;2023-07-31T06:14:56;4.05;;;2.78;;
22026;SDS011;11177;50.966;10.070;2023-07-31T06:17:23;5.22;;;2.67;;
22026;SDS011;11177;50.966;10.070;2023-07-31T06:19:50;6.75;;;3.13;;
22026;SDS011;11177;50.966;10.070;2023-07-31T06:22:17;6.43;;;2.80;;
22026;SDS011;11177;50.966;10.070;2023-07-31T06:24:44;6.55;;;2.80;;
22026;SDS011;11177;50.966;10.070;2023-07-31T06:27:11;3.58;;;2.20;;
22026;SDS011;11177;50.966;10.070;2023-07-31T06:29:38;9.20;;;2.67;;
22026;SDS011;11177;50.966;10.070;2023-07-31T06:32:05;8.02;;;2.97;;
22026;SDS011;11177;50.966;10.070;2023-07-31T06:34:32;6.90;;;2.80;;
22026;SDS011;11177;50.966;10.070;2023-07-31T06:36:59;10.18;;;3.65;;
22026;SDS011;11177;50.966;10.070;2023-07-31T06:39:26;9.93;;;4.28;;
22026;SDS011;11177;50.966;10.070;2023-07-31T06:41:52;5.53;;;3.63;;
22026;SDS011;11177;50.966;10.070;2023-07-31T06:44:19;8.80;;;3.65;;
22026;SDS011;11177;50.966;10.070;2023-07-31T06:46:46;6.10;;;3.25;;
22026;SDS011;11177;50.966;10.070;2023-07-31T06:49:13;6.72;;;2.97;;
22026;SDS011;11177;50.966;10.070;2023-07-31T06:51:42;6.40;;;2.83;;
22026;SDS011;11177;50.966;10.070;2023-07-31T06:54:10;5.07;;;2.42;;
22026;SDS011;11177;50.966;10.070;2023-07-31T06:56:37;4.68;;;2.33;;
22026;SDS011;11177;50.966;10.070;2023-07-31T06:59:06;3.95;;;2.30;;
22026;SDS011;11177;50.966;10.070;2023-07-31T07:01:33;4.78;;;2.03;;
22026;SDS011;11177;50.966;10.070;2023-07-31T07:04:00;7.60;;;2.53;;
22026;SDS011;11177;50.966;10.070;2023-07-31T07:06:27;6.43;;;2.63;;
22026;SDS011;11177;50.966;10.070;2023-07-31T07:08:54;4.93;;;2.70;;
22026;SDS011;11177;50.966;10.070;2023-07-31T07:11:21;8.00;;;2.90;;
22026;SDS011;11177;50.966;10.070;2023-07-31T07:13:48;6.22;;;2.55;;
22026;SDS011;11177;50.966;10.070;2023-07-31T07:16:15;4.07;;;2.20;;
22026;SDS011;11177;50.966;10.070;2023-07-31T07:18:43;4.60;;;2.47;;
22026;SDS011;11177;50.966;10.070;2023-07-31T07:21:29;7.22;;;2.45;;
22026;SDS011;11177;50.966;10.070;2023-07-31T07:23:56;6.55;;;2.20;;
22026;SDS011;11177;50.966;10.070;2023-07-31T07:26:22;6.55;;;2.17;;
22026;SDS011;11177;50.966;10.070;2023-07-31T07:28:50;6.25;;;2.40;;
22026;SDS011;11177;50.966;10.070;2023-07-31T07:31:16;4.30;;;2.30;;
22026;SDS011;11177;50.966;10.070;2023-07-31T07:33:43;4.95;;;2.38;;
22026;SDS011;11177;50.966;10.070;2023-07-31T07:36:10;6.55;;;2.65;;
22026;SDS011;11177;50.966;10.070;2023-07-31T07:38:39;4.15;;;2.10;;
22026;SDS011;11177;50.966;10.070;2023-07-31T07:41:06;4.38;;;2.28;;
22026;SDS011;11177;50.966;10.070;2023-07-31T07:43:33;7.88;;;2.20;;
22026;SDS011;11177;50.966;10.070;2023-07-31T07:46:00;5.93;;;2.60;;
22026;SDS011;11177;50.966;10.070;2023-07-31T07:48:27;6.00;;;2.60;;
22026;SDS011;11177;50.966;10.070;2023-07-31T07:50:54;8.27;;;2.97;;
22026;SDS011;11177;50.966;10.070;2023-07-31T07:53:21;5.32;;;2.22;;
22026;SDS011;11177;50.966;10.070;2023-07-31T07:55:47;6.65;;;2.70;;
22026;SDS011;11177;50.966;10.070;2023-07-31T07:58:14;6.47;;;2.50;;
22026;SDS011;11177;50.966;10.070;2023-07-31T08:00:41;5.95;;;2.45;;
22026;SDS011;11177;50.966;10.070;2023-07-31T08:03:08;4.63;;;2.17;;
22026;SDS011;11177;50.966;10.070;2023-07-31T08:05:36;6.90;;;2.70;;
22026;SDS011;11177;50.966;10.070;2023-07-31T08:08:03;5.00;;;2.70;;
22026;SDS011;11177;50.966;10.070;2023-07-31T08:10:30;5.97;;;2.60;;
22026;SDS011;11177;50.966;10.070;2023-07-31T08:12:57;5.40;;;2.80;;
22026;SDS011;11177;50.966;10.070;2023-07-31T08:15:24;5.95;;;2.65;;
22026;SDS011;11177;50.966;10.070;2023-07-31T08:17:51;4.70;;;2.67;;
22026;SDS011;11177;50.966;10.070;2023-07-31T08:20:17;6.47;;;3.00;;
22026;SDS011;11177;50.966;10.070;2023-07-31T08:22:45;7.95;;;2.70;;
22026;SDS011;11177;50.966;10.070;2023-07-31T08:25:11;4.80;;;2.47;;
22026;SDS011;11177;50.966;10.070;2023-07-31T08:27:38;8.27;;;2.70;;
22026;SDS011;11177;50.966;10.070;2023-07-31T08:30:05;5.68;;;2.20;;
22026;SDS011;11177;50.966;10.070;2023-07-31T08:32:33;6.90;;;2.60;;
22026;SDS011;11177;50.966;10.070;2023-07-31T08:35:00;5.97;;;2.88;;
22026;SDS011;11177;50.966;10.070;2023-07-31T08:37:29;5.90;;;2.70;;
22026;SDS011;11177;50.966;10.070;2023-07-31T08:39:56;6.75;;;2.70;;
22026;SDS011;11177;50.966;10.070;2023-07-31T08:42:24;5.75;;;2.83;;
22026;SDS011;11177;50.966;10.070;2023-07-31T08:44:53;7.20;;;2.53;;
22026;SDS011;11177;50.966;10.070;2023-07-31T08:47:22;6.78;;;2.70;;
22026;SDS011;11177;50.966;10.070;2023-07-31T08:49:49;5.80;;;2.90;;
22026;SDS011;11177;50.966;10.070;2023-07-31T08:52:18;7.38;;;2.85;;
22026;SDS011;11177;50.966;10.070;2023-07-31T08:54:45;5.80;;;2.50;;
22026;SDS011;11177;50.966;10.070;2023-07-31T08:57:12;8.07;;;2.95;;
22026;SDS011;11177;50.966;10.070;2023-07-31T08:59:39;3.63;;;2.60;;
22026;SDS011;11177;50.966;10.070;2023-07-31T09:02:07;4.32;;;2.33;;
22026;SDS011;11177;50.966;10.070;2023-07-31T09:04:35;9.43;;;3.03;;
22026;SDS011;11177;50.966;10.070;2023-07-31T09:07:02;8.05;;;2.60;;
22026;SDS011;11177;50.966;10.070;2023-07-31T09:09:31;5.65;;;2.60;;
22026;SDS011;11177;50.966;10.070;2023-07-31T09:11:58;7.28;;;2.80;;
22026;SDS011;11177;50.966;10.070;2023-07-31T09:14:26;6.30;;;2.63;;
22026;SDS011;11177;50.966;10.070;2023-07-31T09:16:56;7.10;;;3.00;;
22026;SDS011;11177;50.966;10.070;2023-07-31T09:19:31;6.32;;;2.90;;
22026;SDS011;11177;50.966;10.070;2023-07-31T09:22:00;6.18;;;2.90;;
22026;SDS011;11177;50.966;10.070;2023-07-31T09:24:28;5.45;;;2.63;;
22026;SDS011;11177;50.966;10.070;2023-07-31T09:26:57;6.63;;;2.88;;
22026;SDS011;11177;50.966;10.070;2023-07-31T09:29:26;5.15;;;2.72;;
22026;SDS011;11177;50.966;10.070;2023-07-31T09:31:54;7.80;;;3.08;;
22026;SDS011;11177;50.966;10.070;2023-07-31T09:34:28;3.92;;;2.63;;
22026;SDS011;11177;50.966;10.070;2023-07-31T09:36:57;6.30;;;3.22;;
22026;SDS011;11177;50.966;10.070;2023-07-31T09:39:25;6.95;;;2.83;;
22026;SDS011;11177;50.966;10.070;2023-07-31T09:41:54;7.97;;;3.17;;
22026;SDS011;11177;50.966;10.070;2023-07-31T09:44:21;6.60;;;3.17;;
22026;SDS011;11177;50.966;10.070;2023-07-31T09:46:49;6.35;;;3.03;;
22026;SDS011;11177;50.966;10.070;2023-07-31T09:49:16;7.13;;;3.28;;
22026;SDS011;11177;50.966;10.070;2023-07-31T09:51:43;6.80;;;3.35;;
22026;SDS011;11177;50.966;10.070;2023-07-31T09:54:11;5.38;;;2.90;;
22026;SDS011;11177;50.966;10.070;2023-07-31T09:56:41;6.30;;;3.10;;
22026;SDS011;11177;50.966;10.070;2023-07-31T09:59:12;4.85;;;3.10;;
22026;SDS011;11177;50.966;10.070;2023-07-31T10:01:49;9.55;;;3.20;;
22026;SDS011;11177;50.966;10.070;2023-07-31T10:04:16;10.50;;;3.40;;
22026;SDS011;11177;50.966;10.070;2023-07-31T10:06:47;8.73;;;2.83;;
22026;SDS011;11177;50.966;10.070;2023-07-31T10:09:15;9.73;;;3.10;;
22026;SDS011;11177;50.966;10.070;2023-07-31T10:11:47;5.00;;;3.00;;
22026;SDS011;11177;50.966;10.070;2023-07-31T10:14:22;8.82;;;3.70;;
22026;SDS011;11177;50.966;10.070;2023-07-31T10:16:50;6.65;;;2.90;;
22026;SDS011;11177;50.966;10.070;2023-07-31T10:19:18;5.80;;;3.10;;
22026;SDS011;11177;50.966;10.070;2023-07-31T10:21:45;8.30;;;3.40;;
22026;SDS011;11177;50.966;10.070;2023-07-31T10:24:13;8.77;;;3.58;;
22026;SDS011;11177;50.966;10.070;2023-07-31T10:26:41;6.15;;;3.03;;
22026;SDS011;11177;50.966;10.070;2023-07-31T10:29:12;6.90;;;3.40;;
22026;SDS011;11177;50.966;10.070;2023-07-31T10:31:39;5.95;;;3.35;;
22026;SDS011;11177;50.966;10.070;2023-07-31T10:34:07;11.48;;;3.58;;
22026;SDS011;11177;50.966;10.070;2023-07-31T10:36:33;6.22;;;3.55;;
22026;SDS011;11177;50.966;10.070;2023-07-31T10:39:00;6.20;;;3.90;;
22026;SDS011;11177;50.966;10.070;2023-07-31T10:41:30;5.18;;;3.42;;
22026;SDS011;11177;50.966;10.070;2023-07-31T10:43:59;8.95;;;3.72;;
22026;SDS011;11177;50.966;10.070;2023-07-31T10:46:29;10.02;;;4.07;;
22026;SDS011;11177;50.966;10.070;2023-07-31T10:49:00;9.98;;;3.47;;
22026;SDS011;11177;50.966;10.070;2023-07-31T10:51:34;7.82;;;3.88;;
22026;SDS011;11177;50.966;10.070;2023-07-31T10:54:12;7.03;;;3.13;;
22026;SDS011;11177;50.966;10.070;2023-07-31T10:56:46;8.15;;;3.20;;
22026;SDS011;11177;50.966;10.070;2023-07-31T10:59:16;6.03;;;3.53;;
22026;SDS011;11177;50.966;10.070;2023-07-31T11:01:51;7.05;;;3.65;;
22026;SDS011;11177;50.966;10.070;2023-07-31T11:04:25;6.50;;;3.30;;
22026;SDS011;11177;50.966;10.070;2023-07-31T11:06:59;8.20;;;3.78;;
22026;SDS011;11177;50.966;10.070;2023-07-31T11:09:31;8.55;;;3.58;;
22026;SDS011;11177;50.966;10.070;2023-07-31T11:12:00;7.10;;;3.13;;
22026;SDS011;11177;50.966;10.070;2023-07-31T11:14:27;7.63;;;3.55;;
22026;SDS011;11177;50.966;10.070;2023-07-31T11:16:54;6.32;;;3.50;;
22026;SDS011;11177;50.966;10.070;2023-07-31T11:19:21;5.97;;;3.30;;
22026;SDS011;11177;50.966;10.070;2023-07-31T11:21:52;4.95;;;3.35;;
22026;SDS011;11177;50.966;10.070;2023-07-31T11:24:19;5.00;;;3.20;;
22026;SDS011;11177;50.966;10.070;2023-07-31T11:26:50;6.57;;;3.25;;
22026;SDS011;11177;50.966;10.070;2023-07-31T11:29:18;5.50;;;2.90;;
22026;SDS011;11177;50.966;10.070;2023-07-31T11:31:46;5.60;;;3.03;;
22026;SDS011;11177;50.966;10.070;2023-07-31T11:34:14;6.72;;;3.17;;
22026;SDS011;11177;50.966;10.070;2023-07-31T11:36:42;6.15;;;2.97;;
22026;SDS011;11177;50.966;10.070;2023-07-31T11:39:19;4.88;;;2.70;;
22026;SDS011;11177;50.966;10.070;2023-07-31T11:41:47;5.15;;;2.80;;
22026;SDS011;11177;50.966;10.070;2023-07-31T11:44:14;4.60;;;2.67;;
22026;SDS011;11177;50.966;10.070;2023-07-31T11:46:52;4.10;;;2.92;;
22026;SDS011;11177;50.966;10.070;2023-07-31T11:49:19;6.53;;;2.70;;
22026;SDS011;11177;50.966;10.070;2023-07-31T11:51:47;7.30;;;2.80;;
22026;SDS011;11177;50.966;10.070;2023-07-31T11:54:14;5.45;;;2.83;;
22026;SDS011;11177;50.966;10.070;2023-07-31T11:56:41;4.82;;;2.70;;
22026;SDS011;11177;50.966;10.070;2023-07-31T11:59:10;5.40;;;2.35;;
22026;SDS011;11177;50.966;10.070;2023-07-31T12:01:38;5.00;;;2.38;;
22026;SDS011;11177;50.966;10.070;2023-07-31T12:04:05;3.90;;;2.50;;
22026;SDS011;11177;50.966;10.070;2023-07-31T12:06:34;5.00;;;2.30;;
22026;SDS011;11177;50.966;10.070;2023-07-31T12:09:05;5.90;;;2.50;;
22026;SDS011;11177;50.966;10.070;2023-07-31T12:11:45;3.97;;;2.40;;
22026;SDS011;11177;50.966;10.070;2023-07-31T12:14:47;9.85;;;2.60;;
22026;SDS011;11177;50.966;10.070;2023-07-31T12:17:08;3.55;;;2.33;;
22026;SDS011;11177;50.966;10.070;2023-07-31T12:19:35;5.55;;;2.80;;
22026;SDS011;11177;50.966;10.070;2023-07-31T12:22:01;5.57;;;2.70;;
22026;SDS011;11177;50.966;10.070;2023-07-31T12:24:28;7.88;;;2.60;;
22026;SDS011;11177;50.966;10.070;2023-07-31T12:26:55;5.90;;;3.00;;
22026;SDS011;11177;50.966;10.070;2023-07-31T12:29:22;7.20;;;3.47;;
22026;SDS011;11177;50.966;10.070;2023-07-31T12:31:49;6.15;;;3.72;;
22026;SDS011;11177;50.966;10.070;2023-07-31T12:34:16;7.05;;;3.33;;
22026;SDS011;11177;50.966;10.070;2023-07-31T12:36:45;5.13;;;2.65;;
22026;SDS011;11177;50.966;10.070;2023-07-31T12:39:12;6.50;;;2.67;;
22026;SDS011;11177;50.966;10.070;2023-07-31T12:41:39;4.50;;;2.75;;
22026;SDS011;11177;50.966;10.070;2023-07-31T12:44:06;6.03;;;2.83;;
22026;SDS011;11177;50.966;10.070;2023-07-31T12:46:33;6.78;;;2.65;;
22026;SDS011;11177;50.966;10.070;2023-07-31T12:49:00;5.32;;;2.85;;
22026;SDS011;11177;50.966;10.070;2023-07-31T12:51:27;5.63;;;2.80;;
22026;SDS011;11177;50.966;10.070;2023-07-31T12:53:54;6.20;;;2.92;;
22026;SDS011;11177;50.966;10.070;2023-07-31T12:56:21;5.57;;;2.95;;
22026;SDS011;11177;50.966;10.070;2023-07-31T12:58:48;7.43;;;3.05;;
22026;SDS011;11177;50.966;10.070;2023-07-31T13:01:14;5.68;;;2.80;;
22026;SDS011;11177;50.966;10.070;2023-07-31T13:03:42;5.55;;;2.65;;
22026;SDS011;11177;50.966;10.070;2023-07-31T13:06:08;8.52;;;3.05;;
22026;SDS011;11177;50.966;10.070;2023-07-31T13:08:35;6.25;;;3.13;;
22026;SDS011;11177;50.966;10.070;2023-07-31T13:11:02;11.63;;;3.03;;
22026;SDS011;11177;50.966;10.070;2023-07-31T13:13:29;8.73;;;2.85;;
22026;SDS011;11177;50.966;10.070;2023-07-31T13:15:58;7.68;;;2.97;;
22026;SDS011;11177;50.966;10.070;2023-07-31T13:18:25;5.30;;;2.72;;
22026;SDS011;11177;50.966;10.070;2023-07-31T13:20:52;10.25;;;3.00;;
22026;SDS011;11177;50.966;10.070;2023-07-31T13:23:19;6.80;;;3.05;;
22026;SDS011;11177;50.966;10.070;2023-07-31T13:25:46;7.82;;;3.00;;
22026;SDS011;11177;50.966;10.070;2023-07-31T13:28:13;3.97;;;2.63;;
22026;SDS011;11177;50.966;10.070;2023-07-31T13:30:41;7.90;;;2.80;;
22026;SDS011;11177;50.966;10.070;2023-07-31T13:33:07;9.60;;;3.03;;
22026;SDS011;11177;50.966;10.070;2023-07-31T13:35:50;7.22;;;2.97;;
22026;SDS011;11177;50.966;10.070;2023-07-31T13:38:17;9.18;;;2.97;;
22026;SDS011;11177;50.966;10.070;2023-07-31T13:40:44;4.07;;;2.60;;
22026;SDS011;11177;50.966;10.070;2023-07-31T13:43:11;7.85;;;3.13;;
22026;SDS011;11177;50.966;10.070;2023-07-31T13:45:38;9.02;;;3.25;;
22026;SDS011;11177;50.966;10.070;2023-07-31T13:48:05;6.00;;;3.05;;
22026;SDS011;11177;50.966;10.070;2023-07-31T13:50:32;6.20;;;3.08;;
22026;SDS011;11177;50.966;10.070;2023-07-31T13:52:59;6.45;;;2.90;;
22026;SDS011;11177;50.966;10.070;2023-07-31T13:55:26;7.63;;;2.90;;
22026;SDS011;11177;50.966;10.070;2023-07-31T13:57:53;4.55;;;2.88;;
22026;SDS011;11177;50.966;10.070;2023-07-31T14:00:20;6.35;;;2.90;;
22026;SDS011;11177;50.966;10.070;2023-07-31T14:02:46;10.02;;;2.78;;
22026;SDS011;11177;50.966;10.070;2023-07-31T14:05:13;6.78;;;2.90;;
22026;SDS011;11177;50.966;10.070;2023-07-31T14:07:40;8.00;;;2.90;;
22026;SDS011;11177;50.966;10.070;2023-07-31T14:10:08;5.35;;;3.08;;
22026;SDS011;11177;50.966;10.070;2023-07-31T14:12:35;6.53;;;2.90;;
22026;SDS011;11177;50.966;10.070;2023-07-31T14:15:09;5.93;;;2.90;;
22026;SDS011;11177;50.966;10.070;2023-07-31T14:17:36;7.00;;;3.13;;
22026;SDS011;11177;50.966;10.070;2023-07-31T14:20:03;8.63;;;3.20;;
22026;SDS011;11177;50.966;10.070;2023-07-31T14:22:32;7.57;;;3.47;;
22026;SDS011;11177;50.966;10.070;2023-07-31T14:25:00;5.47;;;2.83;;
22026;SDS011;11177;50.966;10.070;2023-07-31T14:27:28;7.88;;;2.88;;
22026;SDS011;11177;50.966;10.070;2023-07-31T14:29:55;6.07;;;3.35;;
22026;SDS011;11177;50.966;10.070;2023-07-31T14:32:22;5.35;;;2.70;;
22026;SDS011;11177;50.966;10.070;2023-07-31T14:34:52;9.95;;;3.13;;
22026;SDS011;11177;50.966;10.070;2023-07-31T14:37:21;7.72;;;3.08;;
22026;SDS011;11177;50.966;10.070;2023-07-31T14:39:48;6.45;;;2.75;;
22026;SDS011;11177;50.966;10.070;2023-07-31T14:42:16;8.98;;;3.20;;